sensor_id;sensor_type;location;lat;lon;timestamp;pressure;altitude;pressure_sealevel;temperature;humidity
60589;BME280;46421;48.610;9.334;2022-10-31T00:02:20;98509.69;;;10.02;97.86
60589;BME280;46421;48.610;9.334;2022-10-31T00:04:45;98505.09;;;10.12;98.15
60589;BME280;46421;48.610;9.334;2022-10-31T00:07:11;98509.75;;;10.19;97.97
60589;BME280;46421;48.610;9.334;2022-10-31T00:09:36;98503.09;;;10.15;100.00
60589;BME280;46421;48.610;9.334;2022-10-31T00:12:01;98505.38;;;10.01;100.00
60589;BME280;46421;48.610;9.334;2022-10-31T00:14:27;98506.28;;;10.18;98.84
60589;BME280;46421;48.610;9.334;2022-10-31T00:16:52;98510.03;;;10.07;99.06
60589;BME280;46421;48.610;9.334;2022-10-31T00:19:17;98508.91;;;10.10;99.64
60589;BME280;46421;48.610;9.334;2022-10-31T00:21:43;98509.91;;;10.17;99.46
60589;BME280;46421;48.610;9.334;2022-10-31T00:24:08;98508.16;;;9.91;99.63
60589;BME280;46421;48.610;9.334;2022-10-31T00:26:33;98506.00;;;10.38;98.50
60589;BME280;46421;48.610;9.334;2022-10-31T00:28:59;98504.13;;;10.30;94.71
60589;BME280;46421;48.610;9.334;2022-10-31T00:31:25;98510.22;;;10.14;97.27
60589;BME280;46421;48.610;9.334;2022-10-31T00:33:51;98505.53;;;10.00;98.71
60589;BME280;46421;48.610;9.334;2022-10-31T00:36:18;98510.00;;;9.91;100.00
60589;BME280;46421;48.610;9.334;2022-10-31T00:38:45;98514.59;;;9.80;98.63
60589;BME280;46421;48.610;9.334;2022-10-31T00:41:11;98506.91;;;9.69;100.00
60589;BME280;46421;48.610;9.334;2022-10-31T00:43:37;98512.88;;;9.63;100.00
60589;BME280;46421;48.610;9.334;2022-10-31T00:46:03;98506.34;;;10.00;100.00
60589;BME280;46421;48.610;9.334;2022-10-31T00:48:28;98511.66;;;10.00;97.41
60589;BME280;46421;48.610;9.334;2022-10-31T00:50:54;98514.41;;;9.74;97.44
60589;BME280;46421;48.610;9.334;2022-10-31T00:53:19;98505.84;;;9.54;100.00
60589;BME280;46421;48.610;9.334;2022-10-31T00:55:45;98510.88;;;9.65;100.00
60589;BME280;46421;48.610;9.334;2022-10-31T00:58:10;98513.47;;;9.91;99.45
60589;BME280;46421;48.610;9.334;2022-10-31T01:00:35;98504.63;;;10.34;96.65
60589;BME280;46421;48.610;9.334;2022-10-31T01:03:01;98503.25;;;10.13;98.20
60589;BME280;46421;48.610;9.334;2022-10-31T01:05:26;98494.31;;;10.22;98.25
60589;BME280;46421;48.610;9.334;2022-10-31T01:07:52;98499.03;;;9.94;96.52
60589;BME280;46421;48.610;9.334;2022-10-31T01:10:17;98506.38;;;10.08;97.30
60589;BME280;46421;48.610;9.334;2022-10-31T01:12:45;98499.53;;;10.49;95.76
60589;BME280;46421;48.610;9.334;2022-10-31T01:15:13;98501.59;;;10.20;95.80
60589;BME280;46421;48.610;9.334;2022-10-31T01:17:39;98506.66;;;9.89;95.69
60589;BME280;46421;48.610;9.334;2022-10-31T01:20:08;98501.81;;;9.76;96.92
60589;BME280;46421;48.610;9.334;2022-10-31T01:22:34;98505.22;;;9.60;97.40
60589;BME280;46421;48.610;9.334;2022-10-31T01:24:59;98502.59;;;9.68;99.44
60589;BME280;46421;48.610;9.334;2022-10-31T01:27:25;98496.06;;;9.97;98.24
60589;BME280;46421;48.610;9.334;2022-10-31T01:29:50;98506.84;;;9.95;93.94
60589;BME280;46421;48.610;9.334;2022-10-31T01:32:16;98505.88;;;10.05;93.72
60589;BME280;46421;48.610;9.334;2022-10-31T01:34:42;98493.63;;;9.69;96.84
60589;BME280;46421;48.610;9.334;2022-10-31T01:37:07;98493.91;;;9.23;98.30
60589;BME280;46421;48.610;9.334;2022-10-31T01:39:33;98500.59;;;8.83;99.95
60589;BME280;46421;48.610;9.334;2022-10-31T01:41:58;98491.69;;;9.10;100.00
60589;BME280;46421;48.610;9.334;2022-10-31T01:47:00;98490.00;;;9.70;95.76
60589;BME280;46421;48.610;9.334;2022-10-31T01:49:54;98488.38;;;9.43;96.44
60589;BME280;46421;48.610;9.334;2022-10-31T01:52:43;98486.59;;;9.17;99.20
60589;BME280;46421;48.610;9.334;2022-10-31T01:58:13;98492.94;;;9.24;95.99
60589;BME280;46421;48.610;9.334;2022-10-31T02:00:41;98489.84;;;9.37;98.14
60589;BME280;46421;48.610;9.334;2022-10-31T02:03:09;98491.66;;;9.37;97.89
60589;BME280;46421;48.610;9.334;2022-10-31T02:05:35;98493.28;;;9.03;100.00
60589;BME280;46421;48.610;9.334;2022-10-31T02:08:05;98488.41;;;9.51;98.43
60589;BME280;46421;48.610;9.334;2022-10-31T02:10:33;98488.63;;;9.58;98.48
60589;BME280;46421;48.610;9.334;2022-10-31T02:13:02;98484.06;;;9.85;95.19
60589;BME280;46421;48.610;9.334;2022-10-31T02:15:28;98493.72;;;9.51;97.26
60589;BME280;46421;48.610;9.334;2022-10-31T02:17:55;98486.72;;;9.42;97.55
60589;BME280;46421;48.610;9.334;2022-10-31T02:20:22;98492.31;;;9.30;99.59
60589;BME280;46421;48.610;9.334;2022-10-31T02:23:11;98490.50;;;9.39;100.00
60589;BME280;46421;48.610;9.334;2022-10-31T02:28:30;98481.13;;;9.53;98.92
60589;BME280;46421;48.610;9.334;2022-10-31T02:44:09;98493.56;;;9.87;94.43
60589;BME280;46421;48.610;9.334;2022-10-31T02:46:45;98480.50;;;9.59;94.61
60589;BME280;46421;48.610;9.334;2022-10-31T02:49:28;98478.16;;;9.48;97.18
60589;BME280;46421;48.610;9.334;2022-10-31T02:51:56;98476.91;;;9.77;96.29
60589;BME280;46421;48.610;9.334;2022-10-31T02:54:25;98484.97;;;10.02;94.29
60589;BME280;46421;48.610;9.334;2022-10-31T02:56:55;98479.94;;;9.90;93.49
60589;BME280;46421;48.610;9.334;2022-10-31T02:59:23;98477.63;;;9.44;94.52
60589;BME280;46421;48.610;9.334;2022-10-31T03:06:52;98482.44;;;8.70;99.54
60589;BME280;46421;48.610;9.334;2022-10-31T03:09:31;98483.31;;;8.79;99.53
60589;BME280;46421;48.610;9.334;2022-10-31T03:12:06;98490.97;;;8.82;99.03
60589;BME280;46421;48.610;9.334;2022-10-31T03:17:08;98476.47;;;8.94;98.15
60589;BME280;46421;48.610;9.334;2022-10-31T03:19:40;98478.59;;;8.64;98.86
60589;BME280;46421;48.610;9.334;2022-10-31T03:22:11;98473.63;;;9.14;97.37
60589;BME280;46421;48.610;9.334;2022-10-31T03:24:41;98468.34;;;9.14;95.94
60589;BME280;46421;48.610;9.334;2022-10-31T03:27:09;98474.97;;;9.18;96.76
60589;BME280;46421;48.610;9.334;2022-10-31T03:29:37;98476.34;;;9.22;96.34
60589;BME280;46421;48.610;9.334;2022-10-31T03:32:12;98475.44;;;9.40;94.67
60589;BME280;46421;48.610;9.334;2022-10-31T03:34:41;98473.38;;;9.25;93.88
60589;BME280;46421;48.610;9.334;2022-10-31T03:37:10;98474.25;;;8.81;96.82
60589;BME280;46421;48.610;9.334;2022-10-31T03:39:40;98476.47;;;8.94;97.88
60589;BME280;46421;48.610;9.334;2022-10-31T03:42:10;98479.94;;;9.13;96.56
60589;BME280;46421;48.610;9.334;2022-10-31T03:44:37;98479.09;;;9.39;95.68
60589;BME280;46421;48.610;9.334;2022-10-31T03:47:04;98482.00;;;9.27;94.23
60589;BME280;46421;48.610;9.334;2022-10-31T03:49:30;98476.44;;;9.39;93.84
60589;BME280;46421;48.610;9.334;2022-10-31T03:52:27;98472.03;;;8.95;95.03
60589;BME280;46421;48.610;9.334;2022-10-31T03:57:59;98472.38;;;8.37;98.61
60589;BME280;46421;48.610;9.334;2022-10-31T04:00:27;98463.38;;;8.66;96.84
60589;BME280;46421;48.610;9.334;2022-10-31T04:03:03;98466.38;;;8.72;96.94
60589;BME280;46421;48.610;9.334;2022-10-31T04:05:32;98474.06;;;8.57;95.94
60589;BME280;46421;48.610;9.334;2022-10-31T04:07:59;98474.22;;;8.55;96.52
60589;BME280;46421;48.610;9.334;2022-10-31T04:10:27;98473.44;;;8.45;96.80
60589;BME280;46421;48.610;9.334;2022-10-31T04:13:13;98473.44;;;8.45;96.46
60589;BME280;46421;48.610;9.334;2022-10-31T04:15:41;98469.28;;;8.42;97.94
60589;BME280;46421;48.610;9.334;2022-10-31T04:18:07;98472.75;;;8.25;98.39
60589;BME280;46421;48.610;9.334;2022-10-31T04:20:35;98468.88;;;8.37;99.39
60589;BME280;46421;48.610;9.334;2022-10-31T04:23:01;98472.13;;;8.85;93.26
60589;BME280;46421;48.610;9.334;2022-10-31T04:25:27;98461.56;;;8.49;95.23
60589;BME280;46421;48.610;9.334;2022-10-31T04:27:52;98475.03;;;8.37;96.21
60589;BME280;46421;48.610;9.334;2022-10-31T04:30:18;98470.72;;;8.18;98.79
60589;BME280;46421;48.610;9.334;2022-10-31T04:32:43;98472.63;;;8.62;94.83
60589;BME280;46421;48.610;9.334;2022-10-31T04:35:08;98470.63;;;8.82;95.86
60589;BME280;46421;48.610;9.334;2022-10-31T04:37:33;98471.50;;;9.17;93.94
60589;BME280;46421;48.610;9.334;2022-10-31T04:39:59;98466.31;;;8.81;93.26
60589;BME280;46421;48.610;9.334;2022-10-31T04:42:24;98465.59;;;8.53;95.40
60589;BME280;46421;48.610;9.334;2022-10-31T04:44:49;98460.88;;;8.65;95.39
60589;BME280;46421;48.610;9.334;2022-10-31T04:47:15;98459.94;;;8.38;95.50
60589;BME280;46421;48.610;9.334;2022-10-31T04:49:40;98457.31;;;8.56;96.31
60589;BME280;46421;48.610;9.334;2022-10-31T04:52:06;98450.19;;;8.75;94.14
60589;BME280;46421;48.610;9.334;2022-10-31T04:54:33;98442.38;;;9.26;92.19
60589;BME280;46421;48.610;9.334;2022-10-31T04:56:58;98450.53;;;9.06;92.68
60589;BME280;46421;48.610;9.334;2022-10-31T04:59:24;98447.38;;;9.29;91.45
60589;BME280;46421;48.610;9.334;2022-10-31T05:01:49;98453.00;;;8.99;95.62
60589;BME280;46421;48.610;9.334;2022-10-31T05:04:14;98441.13;;;8.59;93.72
60589;BME280;46421;48.610;9.334;2022-10-31T05:06:40;98441.09;;;8.77;92.74
60589;BME280;46421;48.610;9.334;2022-10-31T05:09:06;98438.47;;;8.59;93.64
60589;BME280;46421;48.610;9.334;2022-10-31T05:11:31;98442.56;;;8.53;93.62
60589;BME280;46421;48.610;9.334;2022-10-31T05:13:56;98436.88;;;8.30;95.25
60589;BME280;46421;48.610;9.334;2022-10-31T05:16:22;98443.00;;;8.67;93.78
60589;BME280;46421;48.610;9.334;2022-10-31T05:18:47;98434.34;;;8.83;95.32
60589;BME280;46421;48.610;9.334;2022-10-31T05:21:12;98437.41;;;8.52;93.71
60589;BME280;46421;48.610;9.334;2022-10-31T05:23:38;98429.38;;;7.89;96.60
60589;BME280;46421;48.610;9.334;2022-10-31T05:26:03;98430.47;;;7.69;98.32
60589;BME280;46421;48.610;9.334;2022-10-31T05:28:29;98430.63;;;7.67;99.97
60589;BME280;46421;48.610;9.334;2022-10-31T05:30:54;98431.88;;;7.91;100.00
60589;BME280;46421;48.610;9.334;2022-10-31T05:33:19;98435.41;;;8.72;95.72
60589;BME280;46421;48.610;9.334;2022-10-31T05:35:45;98423.38;;;8.78;91.79
60589;BME280;46421;48.610;9.334;2022-10-31T05:38:10;98424.81;;;8.36;94.44
60589;BME280;46421;48.610;9.334;2022-10-31T05:40:35;98426.66;;;8.53;94.97
60589;BME280;46421;48.610;9.334;2022-10-31T05:43:01;98413.06;;;8.12;94.58
60589;BME280;46421;48.610;9.334;2022-10-31T05:45:26;98413.06;;;9.01;90.73
60589;BME280;46421;48.610;9.334;2022-10-31T05:47:57;98416.19;;;8.96;89.18
60589;BME280;46421;48.610;9.334;2022-10-31T05:50:24;98416.19;;;8.96;91.04
60589;BME280;46421;48.610;9.334;2022-10-31T05:53:01;98421.72;;;8.41;92.36
60589;BME280;46421;48.610;9.334;2022-10-31T05:55:30;98413.59;;;8.16;93.27
60589;BME280;46421;48.610;9.334;2022-10-31T05:57:56;98415.09;;;8.00;95.14
60589;BME280;46421;48.610;9.334;2022-10-31T06:00:23;98412.13;;;8.03;95.40
60589;BME280;46421;48.610;9.334;2022-10-31T06:02:48;98417.34;;;7.95;94.19
60589;BME280;46421;48.610;9.334;2022-10-31T06:05:14;98420.81;;;7.78;94.77
60589;BME280;46421;48.610;9.334;2022-10-31T06:07:39;98422.97;;;7.64;96.79
60589;BME280;46421;48.610;9.334;2022-10-31T06:10:07;98422.94;;;7.46;98.51
60589;BME280;46421;48.610;9.334;2022-10-31T06:12:33;98424.88;;;7.54;99.13
60589;BME280;46421;48.610;9.334;2022-10-31T06:15:06;98425.94;;;7.61;96.13
60589;BME280;46421;48.610;9.334;2022-10-31T06:17:33;98425.63;;;7.64;98.02
60589;BME280;46421;48.610;9.334;2022-10-31T06:19:59;98428.09;;;7.75;97.34
60589;BME280;46421;48.610;9.334;2022-10-31T06:22:24;98425.38;;;7.85;96.20
60589;BME280;46421;48.610;9.334;2022-10-31T06:24:49;98422.28;;;8.08;94.44
60589;BME280;46421;48.610;9.334;2022-10-31T06:27:15;98421.47;;;8.07;95.59
60589;BME280;46421;48.610;9.334;2022-10-31T06:29:40;98416.00;;;8.09;94.73
60589;BME280;46421;48.610;9.334;2022-10-31T06:32:06;98423.25;;;8.25;94.60
60589;BME280;46421;48.610;9.334;2022-10-31T06:34:34;98421.59;;;8.24;94.17
60589;BME280;46421;48.610;9.334;2022-10-31T06:37:00;98426.91;;;8.24;94.59
60589;BME280;46421;48.610;9.334;2022-10-31T06:39:25;98432.72;;;8.10;94.21
60589;BME280;46421;48.610;9.334;2022-10-31T06:41:50;98427.19;;;7.85;95.32
60589;BME280;46421;48.610;9.334;2022-10-31T06:44:16;98435.50;;;7.90;95.83
60589;BME280;46421;48.610;9.334;2022-10-31T06:46:41;98438.31;;;8.06;95.07
60589;BME280;46421;48.610;9.334;2022-10-31T06:49:06;98427.88;;;8.05;95.10
60589;BME280;46421;48.610;9.334;2022-10-31T06:51:32;98428.09;;;8.12;96.25
60589;BME280;46421;48.610;9.334;2022-10-31T06:53:57;98424.91;;;8.62;93.37
60589;BME280;46421;48.610;9.334;2022-10-31T06:56:22;98430.53;;;9.12;90.42
60589;BME280;46421;48.610;9.334;2022-10-31T06:58:48;98428.22;;;10.03;86.17
60589;BME280;46421;48.610;9.334;2022-10-31T07:01:13;98426.25;;;11.75;76.84
60589;BME280;46421;48.610;9.334;2022-10-31T07:03:39;98429.78;;;12.30;71.91
60589;BME280;46421;48.610;9.334;2022-10-31T07:06:04;98426.75;;;10.83;79.36
60589;BME280;46421;48.610;9.334;2022-10-31T07:08:30;98427.44;;;10.43;83.08
60589;BME280;46421;48.610;9.334;2022-10-31T07:10:56;98429.38;;;10.33;83.88
60589;BME280;46421;48.610;9.334;2022-10-31T07:13:23;98430.41;;;10.73;83.25
60589;BME280;46421;48.610;9.334;2022-10-31T07:16:00;98422.63;;;11.28;79.51
60589;BME280;46421;48.610;9.334;2022-10-31T07:18:25;98428.84;;;11.60;78.44
60589;BME280;46421;48.610;9.334;2022-10-31T07:20:51;98421.41;;;12.72;72.04
60589;BME280;46421;48.610;9.334;2022-10-31T07:23:17;98423.25;;;13.54;67.72
60589;BME280;46421;48.610;9.334;2022-10-31T07:25:43;98411.50;;;14.50;63.32
60589;BME280;46421;48.610;9.334;2022-10-31T07:28:09;98422.03;;;14.30;63.57
60589;BME280;46421;48.610;9.334;2022-10-31T07:30:35;98430.94;;;14.37;63.55
60589;BME280;46421;48.610;9.334;2022-10-31T07:33:00;98432.28;;;14.48;63.58
60589;BME280;46421;48.610;9.334;2022-10-31T07:35:27;98421.28;;;13.78;66.10
60589;BME280;46421;48.610;9.334;2022-10-31T07:37:54;98430.78;;;13.21;69.46
60589;BME280;46421;48.610;9.334;2022-10-31T07:40:20;98427.72;;;12.94;71.29
60589;BME280;46421;48.610;9.334;2022-10-31T07:42:49;98418.34;;;12.45;73.18
60589;BME280;46421;48.610;9.334;2022-10-31T07:45:17;98416.31;;;12.85;71.83
60589;BME280;46421;48.610;9.334;2022-10-31T07:50:21;98423.72;;;13.58;69.29
60589;BME280;46421;48.610;9.334;2022-10-31T07:52:47;98424.84;;;13.85;67.70
60589;BME280;46421;48.610;9.334;2022-10-31T07:55:13;98424.31;;;13.75;68.58
60589;BME280;46421;48.610;9.334;2022-10-31T07:57:39;98420.69;;;13.46;72.43
60589;BME280;46421;48.610;9.334;2022-10-31T08:00:08;98423.50;;;13.59;71.58
60589;BME280;46421;48.610;9.334;2022-10-31T08:02:34;98414.69;;;13.96;70.07
60589;BME280;46421;48.610;9.334;2022-10-31T08:05:00;98410.81;;;14.20;69.87
60589;BME280;46421;48.610;9.334;2022-10-31T08:07:27;98417.16;;;14.62;69.46
60589;BME280;46421;48.610;9.334;2022-10-31T08:09:53;98410.41;;;15.23;66.62
60589;BME280;46421;48.610;9.334;2022-10-31T08:12:19;98420.94;;;15.73;63.89
60589;BME280;46421;48.610;9.334;2022-10-31T08:14:44;98423.59;;;16.28;62.30
60589;BME280;46421;48.610;9.334;2022-10-31T08:17:13;98426.09;;;16.57;61.66
60589;BME280;46421;48.610;9.334;2022-10-31T08:19:38;98420.28;;;16.33;62.29
60589;BME280;46421;48.610;9.334;2022-10-31T08:22:04;98415.78;;;16.67;61.52
60589;BME280;46421;48.610;9.334;2022-10-31T08:24:29;98419.47;;;16.73;61.05
60589;BME280;46421;48.610;9.334;2022-10-31T08:26:54;98417.41;;;16.75;59.87
60589;BME280;46421;48.610;9.334;2022-10-31T08:29:20;98413.38;;;17.51;59.29
60589;BME280;46421;48.610;9.334;2022-10-31T08:31:45;98413.63;;;17.36;60.31
60589;BME280;46421;48.610;9.334;2022-10-31T08:34:11;98413.13;;;18.12;57.01
60589;BME280;46421;48.610;9.334;2022-10-31T08:36:36;98408.03;;;17.90;57.58
60589;BME280;46421;48.610;9.334;2022-10-31T08:39:02;98408.84;;;17.91;59.61
60589;BME280;46421;48.610;9.334;2022-10-31T08:41:28;98401.25;;;17.29;60.28
60589;BME280;46421;48.610;9.334;2022-10-31T08:43:53;98400.66;;;17.20;60.52
60589;BME280;46421;48.610;9.334;2022-10-31T08:46:19;98399.88;;;16.93;61.97
60589;BME280;46421;48.610;9.334;2022-10-31T08:48:47;98402.75;;;16.64;63.32
60589;BME280;46421;48.610;9.334;2022-10-31T08:51:13;98401.09;;;17.69;60.06
60589;BME280;46421;48.610;9.334;2022-10-31T08:53:38;98398.97;;;17.84;58.69
60589;BME280;46421;48.610;9.334;2022-10-31T08:56:04;98405.75;;;17.48;59.89
60589;BME280;46421;48.610;9.334;2022-10-31T08:58:30;98392.63;;;17.65;60.46
60589;BME280;46421;48.610;9.334;2022-10-31T09:00:55;98394.69;;;16.98;61.18
60589;BME280;46421;48.610;9.334;2022-10-31T09:03:23;98394.69;;;16.57;63.32
60589;BME280;46421;48.610;9.334;2022-10-31T09:05:49;98397.59;;;16.42;65.13
60589;BME280;46421;48.610;9.334;2022-10-31T09:08:16;98394.50;;;16.52;64.86
60589;BME280;46421;48.610;9.334;2022-10-31T09:10:42;98384.97;;;16.23;66.88
60589;BME280;46421;48.610;9.334;2022-10-31T09:13:12;98389.31;;;16.37;65.76
60589;BME280;46421;48.610;9.334;2022-10-31T09:15:39;98394.31;;;16.60;66.17
60589;BME280;46421;48.610;9.334;2022-10-31T09:18:06;98385.63;;;16.38;67.54
60589;BME280;46421;48.610;9.334;2022-10-31T09:20:33;98387.28;;;16.46;67.39
60589;BME280;46421;48.610;9.334;2022-10-31T09:23:03;98385.44;;;16.53;65.78
60589;BME280;46421;48.610;9.334;2022-10-31T09:25:29;98387.69;;;16.97;63.13
60589;BME280;46421;48.610;9.334;2022-10-31T09:27:59;98378.06;;;17.41;61.79
60589;BME280;46421;48.610;9.334;2022-10-31T09:30:26;98373.19;;;18.09;62.88
60589;BME280;46421;48.610;9.334;2022-10-31T09:32:56;98374.34;;;17.88;61.71
60589;BME280;46421;48.610;9.334;2022-10-31T09:35:22;98374.50;;;17.93;61.96
60589;BME280;46421;48.610;9.334;2022-10-31T09:37:47;98373.72;;;17.85;61.79
60589;BME280;46421;48.610;9.334;2022-10-31T09:40:12;98364.66;;;18.19;60.47
60589;BME280;46421;48.610;9.334;2022-10-31T09:43:00;98367.47;;;18.56;58.60
60589;BME280;46421;48.610;9.334;2022-10-31T09:45:35;98374.53;;;17.86;60.97
60589;BME280;46421;48.610;9.334;2022-10-31T09:48:33;98368.81;;;18.40;60.43
60589;BME280;46421;48.610;9.334;2022-10-31T09:51:05;98362.84;;;18.63;57.62
60589;BME280;46421;48.610;9.334;2022-10-31T09:53:39;98363.81;;;19.31;58.20
60589;BME280;46421;48.610;9.334;2022-10-31T09:56:15;98360.22;;;19.56;57.20
60589;BME280;46421;48.610;9.334;2022-10-31T09:58:56;98360.50;;;19.66;56.77
60589;BME280;46421;48.610;9.334;2022-10-31T10:01:30;98357.50;;;19.74;57.75
60589;BME280;46421;48.610;9.334;2022-10-31T10:06:58;98352.19;;;19.68;54.81
60589;BME280;46421;48.610;9.334;2022-10-31T10:09:27;98354.53;;;19.46;54.81
60589;BME280;46421;48.610;9.334;2022-10-31T10:12:34;98349.34;;;18.88;56.87
60589;BME280;46421;48.610;9.334;2022-10-31T10:22:42;98349.91;;;20.14;53.34
60589;BME280;46421;48.610;9.334;2022-10-31T10:25:55;98351.16;;;20.77;50.61
60589;BME280;46421;48.610;9.334;2022-10-31T10:30:50;98344.72;;;22.01;48.89
60589;BME280;46421;48.610;9.334;2022-10-31T10:33:26;98348.00;;;21.45;50.58
60589;BME280;46421;48.610;9.334;2022-10-31T10:35:55;98338.28;;;20.13;51.72
60589;BME280;46421;48.610;9.334;2022-10-31T10:38:29;98337.28;;;19.65;54.54
60589;BME280;46421;48.610;9.334;2022-10-31T10:40:58;98337.69;;;19.81;53.59
60589;BME280;46421;48.610;9.334;2022-10-31T10:43:33;98335.97;;;18.82;54.76
60589;BME280;46421;48.610;9.334;2022-10-31T10:49:16;98327.41;;;18.66;60.48
60589;BME280;46421;48.610;9.334;2022-10-31T10:54:21;98318.97;;;18.37;58.93
60589;BME280;46421;48.610;9.334;2022-10-31T10:59:22;98309.47;;;18.35;57.90
60589;BME280;46421;48.610;9.334;2022-10-31T11:01:51;98301.06;;;18.68;59.84
60589;BME280;46421;48.610;9.334;2022-10-31T11:04:38;98302.94;;;19.11;57.82
60589;BME280;46421;48.610;9.334;2022-10-31T11:07:07;98303.75;;;19.92;58.55
60589;BME280;46421;48.610;9.334;2022-10-31T11:09:34;98301.31;;;20.26;59.21
60589;BME280;46421;48.610;9.334;2022-10-31T11:12:05;98294.09;;;20.85;55.90
60589;BME280;46421;48.610;9.334;2022-10-31T11:14:42;98288.72;;;22.01;54.96
60589;BME280;46421;48.610;9.334;2022-10-31T11:17:15;98281.06;;;23.28;51.30
60589;BME280;46421;48.610;9.334;2022-10-31T11:19:42;98282.41;;;23.75;50.85
60589;BME280;46421;48.610;9.334;2022-10-31T11:22:15;98278.06;;;23.51;48.44
60589;BME280;46421;48.610;9.334;2022-10-31T11:24:41;98274.88;;;22.49;51.20
60589;BME280;46421;48.610;9.334;2022-10-31T11:27:14;98266.34;;;22.40;52.16
60589;BME280;46421;48.610;9.334;2022-10-31T11:29:40;98264.78;;;22.10;49.04
60589;BME280;46421;48.610;9.334;2022-10-31T11:32:17;98265.84;;;21.46;52.37
60589;BME280;46421;48.610;9.334;2022-10-31T11:34:45;98253.88;;;21.88;51.79
60589;BME280;46421;48.610;9.334;2022-10-31T11:37:18;98253.19;;;22.32;51.18
60589;BME280;46421;48.610;9.334;2022-10-31T11:39:49;98256.34;;;22.23;50.96
60589;BME280;46421;48.610;9.334;2022-10-31T11:42:20;98255.63;;;22.67;52.18
60589;BME280;46421;48.610;9.334;2022-10-31T11:44:46;98237.44;;;23.07;48.33
60589;BME280;46421;48.610;9.334;2022-10-31T11:47:16;98238.41;;;23.45;47.65
60589;BME280;46421;48.610;9.334;2022-10-31T11:49:44;98229.13;;;23.41;48.61
60589;BME280;46421;48.610;9.334;2022-10-31T11:52:23;98226.28;;;22.81;48.29
60589;BME280;46421;48.610;9.334;2022-10-31T11:54:54;98228.22;;;23.58;48.54
60589;BME280;46421;48.610;9.334;2022-10-31T11:57:33;98223.19;;;24.04;44.76
60589;BME280;46421;48.610;9.334;2022-10-31T12:02:45;98216.28;;;23.59;44.93
60589;BME280;46421;48.610;9.334;2022-10-31T12:07:43;98221.72;;;22.65;48.37
60589;BME280;46421;48.610;9.334;2022-10-31T12:10:13;98217.91;;;22.26;50.86
60589;BME280;46421;48.610;9.334;2022-10-31T12:12:57;98213.34;;;21.93;51.84
60589;BME280;46421;48.610;9.334;2022-10-31T12:15:33;98195.59;;;21.34;51.92
60589;BME280;46421;48.610;9.334;2022-10-31T12:21:10;98196.28;;;19.34;57.52
60589;BME280;46421;48.610;9.334;2022-10-31T12:23:46;98201.22;;;18.88;60.70
60589;BME280;46421;48.610;9.334;2022-10-31T12:31:43;98187.56;;;17.58;65.68
60589;BME280;46421;48.610;9.334;2022-10-31T12:37:20;98174.38;;;17.25;69.51
60589;BME280;46421;48.610;9.334;2022-10-31T12:39:59;98168.88;;;17.13;74.67
60589;BME280;46421;48.610;9.334;2022-10-31T12:50:10;98147.78;;;17.10;71.51
60589;BME280;46421;48.610;9.334;2022-10-31T12:58:35;98140.63;;;16.97;72.24
60589;BME280;46421;48.610;9.334;2022-10-31T13:01:15;98134.84;;;17.00;71.53
60589;BME280;46421;48.610;9.334;2022-10-31T13:06:15;98130.19;;;16.75;74.04
60589;BME280;46421;48.610;9.334;2022-10-31T13:08:55;98127.69;;;16.80;72.29
60589;BME280;46421;48.610;9.334;2022-10-31T13:11:36;98129.56;;;16.80;71.53
60589;BME280;46421;48.610;9.334;2022-10-31T13:14:09;98128.31;;;16.82;71.85
60589;BME280;46421;48.610;9.334;2022-10-31T13:16:42;98130.34;;;16.87;70.00
60589;BME280;46421;48.610;9.334;2022-10-31T13:19:34;98125.78;;;16.87;72.92
60589;BME280;46421;48.610;9.334;2022-10-31T13:22:13;98122.47;;;16.99;71.46
60589;BME280;46421;48.610;9.334;2022-10-31T13:24:53;98109.38;;;17.09;69.24
60589;BME280;46421;48.610;9.334;2022-10-31T13:27:25;98109.94;;;17.18;70.71
60589;BME280;46421;48.610;9.334;2022-10-31T13:32:19;98108.31;;;17.42;72.76
60589;BME280;46421;48.610;9.334;2022-10-31T13:34:49;98099.25;;;17.62;70.69
60589;BME280;46421;48.610;9.334;2022-10-31T13:37:36;98089.13;;;17.64;68.83
60589;BME280;46421;48.610;9.334;2022-10-31T13:42:57;98106.00;;;17.71;70.74
60589;BME280;46421;48.610;9.334;2022-10-31T13:45:25;98098.22;;;17.81;70.08
60589;BME280;46421;48.610;9.334;2022-10-31T13:50:32;98077.00;;;18.17;66.01
60589;BME280;46421;48.610;9.334;2022-10-31T13:55:45;98084.41;;;18.03;65.18
60589;BME280;46421;48.610;9.334;2022-10-31T13:58:30;98079.09;;;18.15;63.14
60589;BME280;46421;48.610;9.334;2022-10-31T14:01:15;98074.69;;;18.21;64.23
60589;BME280;46421;48.610;9.334;2022-10-31T14:03:42;98075.59;;;17.96;63.35
60589;BME280;46421;48.610;9.334;2022-10-31T14:06:10;98070.09;;;17.84;65.97
60589;BME280;46421;48.610;9.334;2022-10-31T14:08:39;98067.75;;;17.69;69.23
60589;BME280;46421;48.610;9.334;2022-10-31T14:11:07;98071.50;;;17.68;68.95
60589;BME280;46421;48.610;9.334;2022-10-31T14:13:37;98062.81;;;17.66;71.13
60589;BME280;46421;48.610;9.334;2022-10-31T14:16:25;98065.69;;;17.90;69.17
60589;BME280;46421;48.610;9.334;2022-10-31T14:19:00;98063.09;;;18.20;68.56
60589;BME280;46421;48.610;9.334;2022-10-31T14:21:35;98062.50;;;18.37;65.38
60589;BME280;46421;48.610;9.334;2022-10-31T14:26:55;98064.56;;;18.53;64.25
60589;BME280;46421;48.610;9.334;2022-10-31T14:29:25;98062.69;;;18.54;64.50
60589;BME280;46421;48.610;9.334;2022-10-31T14:31:56;98051.25;;;18.40;64.23
60589;BME280;46421;48.610;9.334;2022-10-31T14:34:30;98047.47;;;18.29;64.47
60589;BME280;46421;48.610;9.334;2022-10-31T14:40:06;98038.03;;;18.08;65.02
60589;BME280;46421;48.610;9.334;2022-10-31T14:43:49;98043.50;;;17.94;66.67
60589;BME280;46421;48.610;9.334;2022-10-31T14:46:00;98043.00;;;17.42;68.85
60589;BME280;46421;48.610;9.334;2022-10-31T14:51:21;98046.75;;;16.76;72.06
60589;BME280;46421;48.610;9.334;2022-10-31T14:53:55;98043.94;;;16.65;75.77
60589;BME280;46421;48.610;9.334;2022-10-31T14:56:29;98040.72;;;16.49;78.71
60589;BME280;46421;48.610;9.334;2022-10-31T14:58:59;98036.06;;;16.38;76.86
60589;BME280;46421;48.610;9.334;2022-10-31T15:01:30;98036.53;;;16.28;78.91
60589;BME280;46421;48.610;9.334;2022-10-31T15:04:02;98040.69;;;16.17;80.21
60589;BME280;46421;48.610;9.334;2022-10-31T15:06:35;98034.94;;;16.07;81.56